Sidney Richland Municipal Airport Sidney US
ICAO: KSDY
IATA: SDY
Category: Medium
Scheduled Services: No

Elevation: 1985 ft
TransAlt. 18000 ft.

Airport Communications:
AWOS 3:119.275
GREAT FALLS RDO:123.65
CTAF/UNICOM:122.8

KSDY Zoom In..

Runways:

(A) RW 01 length 5705 ft width 100 ft
---- / hdg 15

(B) RW 11 length 4023 ft width 100 ft
---- / hdg 108

(C) RW 19 length 5705 ft width 100 ft
---- / hdg 195

(D) RW 29 length 4023 ft width 100 ft
---- / hdg 288

Location; KSDY
Day. 14 / Time. 02.56 Zulu
* Altimeter: 29.88
* Temperature: 17° c. 62.6°f.
* Wind from: 300° Speed 06 kn.
Dewpoint: 08° c.
Visibility: 10 Statute Miles.
Clouds: Clear (automated report).

KSDY 140256Z AUTO 30006KT 10SM CLR 17/08 A2988 RMK AO2 SLP512 T01670078 53020

Going to: --> -->


Wind From 300°
Speed 06 kn.

 
 
jpsmedia worldairports.se 2020   terms of use